Time,TemperatureF,DewpointF,PressureIn,WindDirection,WindDirectionDegrees,WindSpeedMPH,WindSpeedGustMPH,Humidity,HourlyPrecipIn,Conditions,Clouds,dailyrainin,SoftwareType,DateUTC
2013-02-11 00:13:00,59.4,59.0,30.04,NE,54,2.0,8.0,97,0.00,,,0.00,weatherlink.com 1.10,2013-02-11 06:13:00,
2013-02-11 00:28:00,59.4,59.0,30.05,WNW,293,0.0,3.0,97,0.00,,,0.00,weatherlink.com 1.10,2013-02-11 06:28:00,
2013-02-11 00:44:00,59.4,59.0,30.05,East,84,0.0,7.0,97,0.01,,,0.01,weatherlink.com 1.10,2013-02-11 06:44:00,
2013-02-11 00:59:00,59.3,59.0,30.04,ENE,75,2.0,5.0,97,0.01,,,0.01,weatherlink.com 1.10,2013-02-11 06:59:00,
2013-02-11 01:14:00,59.3,59.0,30.03,East,86,3.0,4.0,97,0.01,,,0.01,weatherlink.com 1.10,2013-02-11 07:14:00,
2013-02-11 01:29:00,59.2,59.0,30.03,East,94,3.0,4.0,98,0.01,,,0.01,weatherlink.com 1.10,2013-02-11 07:29:00,
2013-02-11 01:44:00,59.2,59.0,30.02,East,79,2.0,5.0,98,0.00,,,0.01,weatherlink.com 1.10,2013-02-11 07:44:00,
2013-02-11 01:59:00,59.3,59.0,30.02,East,84,3.0,5.0,98,0.00,,,0.01,weatherlink.com 1.10,2013-02-11 07:59:00,
2013-02-11 02:14:00,59.3,59.0,30.02,ENE,70,3.0,4.0,98,0.00,,,0.01,weatherlink.com 1.10,2013-02-11 08:14:00,
2013-02-11 02:29:00,59.3,59.0,30.01,ENE,63,3.0,4.0,98,0.00,,,0.01,weatherlink.com 1.10,2013-02-11 08:29:00,
2013-02-11 02:44:00,59.3,59.0,30.02,East,81,1.0,3.0,98,0.00,,,0.01,weatherlink.com 1.10,2013-02-11 08:44:00,
2013-02-11 02:59:00,59.5,59.0,30.01,ENE,77,4.0,4.0,98,0.00,,,0.01,weatherlink.com 1.10,2013-02-11 08:59:00,
2013-02-11 03:14:00,59.6,59.0,30.02,WNW,296,1.0,3.0,98,0.00,,,0.01,weatherlink.com 1.10,2013-02-11 09:14:00,
2013-02-11 03:29:00,59.7,59.0,30.02,ESE,103,1.0,2.0,98,0.00,,,0.01,weatherlink.com 1.10,2013-02-11 09:29:00,
2013-02-11 03:44:00,59.7,60.0,30.02,East,91,1.0,4.0,99,0.00,,,0.01,weatherlink.com 1.10,2013-02-11 09:44:00,
2013-02-11 03:59:00,59.9,60.0,30.02,ESE,115,0.0,2.0,99,0.00,,,0.01,weatherlink.com 1.10,2013-02-11 09:59:00,
2013-02-11 04:14:00,60.1,60.0,30.02,East,79,3.0,3.0,99,0.00,,,0.01,weatherlink.com 1.10,2013-02-11 10:14:00,
2013-02-11 04:29:00,60.4,60.0,30.02,ESE,114,2.0,4.0,99,0.00,,,0.01,weatherlink.com 1.10,2013-02-11 10:29:00,
2013-02-11 04:44:00,60.8,61.0,30.02,East,94,2.0,3.0,99,0.00,,,0.01,weatherlink.com 1.10,2013-02-11 10:44:00,
2013-02-11 04:59:00,61.1,61.0,30.01,East,86,0.0,1.0,99,0.00,,,0.01,weatherlink.com 1.10,2013-02-11 10:59:00,
2013-02-11 05:14:00,61.1,61.0,30.02,East,86,0.0,0.0,99,0.00,,,0.01,weatherlink.com 1.10,2013-02-11 11:14:00,
2013-02-11 05:29:00,60.9,61.0,30.03,East,83,0.0,0.0,99,0.00,,,0.01,weatherlink.com 1.10,2013-02-11 11:29:00,
2013-02-11 05:44:00,60.8,61.0,30.04,East,83,0.0,0.0,99,0.00,,,0.01,weatherlink.com 1.10,2013-02-11 11:44:00,
2013-02-11 05:59:00,61.1,61.0,30.04,East,86,0.0,1.0,99,0.00,,,0.01,weatherlink.com 1.10,2013-02-11 11:59:00,
2013-02-11 06:14:00,61.1,61.0,30.05,ENE,68,0.0,1.0,99,0.00,,,0.01,weatherlink.com 1.10,2013-02-11 12:14:00,
2013-02-11 06:29:00,61.4,61.0,30.05,East,81,0.0,2.0,99,0.00,,,0.01,weatherlink.com 1.10,2013-02-11 12:29:00,
2013-02-11 06:44:00,61.5,61.0,30.05,ESE,107,0.0,0.0,99,0.00,,,0.01,weatherlink.com 1.10,2013-02-11 12:44:00,
2013-02-11 06:59:00,61.4,61.0,30.05,ESE,108,0.0,1.0,99,0.00,,,0.01,weatherlink.com 1.10,2013-02-11 12:59:00,
2013-02-11 07:14:00,61.8,62.0,30.05,NW,309,0.0,1.0,99,0.00,,,0.01,weatherlink.com 1.10,2013-02-11 13:14:00,
2013-02-11 07:29:00,62.2,62.0,30.06,NW,309,0.0,0.0,99,0.00,,,0.01,weatherlink.com 1.10,2013-02-11 13:29:00,
2013-02-11 07:44:00,62.4,62.0,30.06,East,86,0.0,1.0,99,0.00,,,0.01,weatherlink.com 1.10,2013-02-11 13:44:00,
2013-02-11 07:59:00,62.8,63.0,30.06,East,86,0.0,0.0,99,0.00,,,0.01,weatherlink.com 1.10,2013-02-11 13:59:00,
2013-02-11 08:14:00,62.9,63.0,30.06,SE,131,0.0,1.0,99,0.00,,,0.01,weatherlink.com 1.10,2013-02-11 14:14:00,
2013-02-11 08:29:00,63.0,63.0,30.07,WNW,298,0.0,1.0,99,0.00,,,0.01,weatherlink.com 1.10,2013-02-11 14:29:00,
2013-02-11 08:44:00,63.1,63.0,30.07,WNW,296,0.0,1.0,99,0.00,,,0.01,weatherlink.com 1.10,2013-02-11 14:44:00,
2013-02-11 08:59:00,63.3,63.0,30.08,NE,45,0.0,2.0,99,0.01,,,0.02,weatherlink.com 1.10,2013-02-11 14:59:00,
2013-02-11 09:14:00,63.1,63.0,30.09,West,265,1.0,6.0,99,0.14,,,0.15,weatherlink.com 1.10,2013-02-11 15:14:00,
2013-02-11 09:29:00,63.7,64.0,30.10,SSE,163,0.0,0.0,99,0.32,,,0.33,weatherlink.com 1.10,2013-02-11 15:29:00,
2013-02-11 09:44:00,63.8,64.0,30.11,WNW,302,0.0,1.0,99,0.38,,,0.39,weatherlink.com 1.10,2013-02-11 15:44:00,
2013-02-11 09:59:00,63.5,63.0,30.10,WNW,290,1.0,3.0,98,0.36,,,0.39,weatherlink.com 1.10,2013-02-11 15:59:00,
2013-02-11 10:14:00,63.9,63.0,30.12,WNW,291,1.0,5.0,98,0.21,,,0.39,weatherlink.com 1.10,2013-02-11 16:14:00,
2013-02-11 10:29:00,64.0,64.0,30.11,NW,305,2.0,4.0,98,0.06,,,0.39,weatherlink.com 1.10,2013-02-11 16:29:00,
2013-02-11 10:44:00,63.6,63.0,30.11,WNW,282,1.0,4.0,97,0.00,,,0.39,weatherlink.com 1.10,2013-02-11 16:44:00,
2013-02-11 10:59:00,63.1,62.0,30.11,WNW,295,3.0,4.0,97,0.01,,,0.40,weatherlink.com 1.10,2013-02-11 16:59:00,
2013-02-11 11:14:00,63.4,63.0,30.10,North,6,1.0,6.0,97,0.01,,,0.40,weatherlink.com 1.10,2013-02-11 17:14:00,
2013-02-11 11:29:00,63.6,62.0,30.11,WSW,252,1.0,6.0,95,0.01,,,0.40,weatherlink.com 1.10,2013-02-11 17:29:00,
2013-02-11 11:44:00,64.3,63.0,30.11,WNW,294,3.0,6.0,96,0.01,,,0.40,weatherlink.com 1.10,2013-02-11 17:44:00,
2013-02-11 11:59:00,64.2,63.0,30.11,SW,233,0.0,6.0,94,0.00,,,0.40,weatherlink.com 1.10,2013-02-11 17:59:00,
2013-02-11 12:14:00,64.6,62.0,30.10,West,281,1.0,8.0,91,0.01,,,0.41,weatherlink.com 1.10,2013-02-11 18:14:00,
2013-02-11 12:29:00,64.8,62.0,30.10,West,278,1.0,6.0,90,0.01,,,0.41,weatherlink.com 1.10,2013-02-11 18:29:00,
2013-02-11 12:45:00,64.2,61.0,30.10,WNW,290,4.0,7.0,89,0.01,,,0.41,weatherlink.com 1.10,2013-02-11 18:45:00,
2013-02-11 13:00:00,63.6,60.0,30.09,NW,319,2.0,8.0,88,0.01,,,0.41,weatherlink.com 1.10,2013-02-11 19:00:00,
2013-02-11 13:15:00,63.1,60.0,30.08,NW,324,3.0,7.0,89,0.00,,,0.41,weatherlink.com 1.10,2013-02-11 19:15:00,
2013-02-11 13:30:00,62.3,59.0,30.09,WNW,288,1.0,6.0,90,0.00,,,0.41,weatherlink.com 1.10,2013-02-11 19:30:00,
2013-02-11 13:45:00,60.8,59.0,30.08,NW,304,0.0,6.0,94,0.03,,,0.44,weatherlink.com 1.10,2013-02-11 19:45:00,
2013-02-11 14:00:00,60.0,59.0,30.07,WNW,284,2.0,4.0,96,0.07,,,0.48,weatherlink.com 1.10,2013-02-11 20:00:00,
2013-02-11 14:15:00,59.5,59.0,30.10,West,272,0.0,3.0,97,0.07,,,0.48,weatherlink.com 1.10,2013-02-11 20:15:00,
2013-02-11 14:30:00,59.0,58.0,30.10,West,279,4.0,6.0,96,0.11,,,0.52,weatherlink.com 1.10,2013-02-11 20:30:00,
2013-02-11 14:45:00,58.0,57.0,30.09,West,266,1.0,6.0,96,0.09,,,0.53,weatherlink.com 1.10,2013-02-11 20:45:00,
2013-02-11 15:00:00,57.4,57.0,30.09,WNW,290,1.0,3.0,97,0.15,,,0.63,weatherlink.com 1.10,2013-02-11 21:00:00,
2013-02-11 15:15:00,57.1,56.0,30.08,ESE,114,2.0,4.0,96,0.17,,,0.65,weatherlink.com 1.10,2013-02-11 21:15:00,
2013-02-11 15:30:00,56.6,56.0,30.08,ENE,73,0.0,3.0,96,0.13,,,0.65,weatherlink.com 1.10,2013-02-11 21:30:00,
2013-02-11 15:45:00,56.3,55.0,30.07,WNW,291,1.0,5.0,96,0.12,,,0.65,weatherlink.com 1.10,2013-02-11 21:45:00,
2013-02-11 16:00:00,56.2,55.0,30.08,WNW,288,3.0,3.0,97,0.02,,,0.65,weatherlink.com 1.10,2013-02-11 22:00:00,
2013-02-11 16:15:00,56.0,55.0,30.09,NW,312,0.0,5.0,97,0.00,,,0.65,weatherlink.com 1.10,2013-02-11 22:15:00,
2013-02-11 16:30:00,55.8,55.0,30.07,South,189,0.0,7.0,97,0.00,,,0.65,weatherlink.com 1.10,2013-02-11 22:30:00,
2013-02-11 16:45:00,55.8,55.0,30.07,East,81,1.0,3.0,97,0.02,,,0.67,weatherlink.com 1.10,2013-02-11 22:45:00,
2013-02-11 17:00:00,55.8,55.0,30.06,ENE,71,0.0,3.0,97,0.03,,,0.68,weatherlink.com 1.10,2013-02-11 23:00:00,
2013-02-11 17:15:00,55.7,55.0,30.06,ENE,71,1.0,2.0,97,0.03,,,0.68,weatherlink.com 1.10,2013-02-11 23:15:00,
2013-02-11 17:30:00,55.7,55.0,30.09,WNW,283,1.0,3.0,98,0.03,,,0.68,weatherlink.com 1.10,2013-02-11 23:30:00,
2013-02-11 17:45:00,55.6,55.0,30.07,East,96,1.0,2.0,98,0.05,,,0.72,weatherlink.com 1.10,2013-02-11 23:45:00,
2013-02-11 18:00:00,55.5,55.0,30.08,East,80,1.0,4.0,98,0.13,,,0.81,weatherlink.com 1.10,2013-02-12 00:00:00,
2013-02-11 18:15:00,55.4,55.0,30.07,East,101,1.0,3.0,98,0.21,,,0.89,weatherlink.com 1.10,2013-02-12 00:15:00,
2013-02-11 18:30:00,55.4,55.0,30.09,ENE,77,5.0,5.0,98,0.30,,,0.98,weatherlink.com 1.10,2013-02-12 00:30:00,
2013-02-11 18:45:00,55.3,55.0,30.10,ESE,107,0.0,3.0,98,0.32,,,1.05,weatherlink.com 1.10,2013-02-12 00:45:00,
2013-02-11 19:00:00,55.2,55.0,30.09,East,101,1.0,3.0,98,0.25,,,1.06,weatherlink.com 1.10,2013-02-12 01:00:00,
2013-02-11 19:15:00,55.2,55.0,30.08,ENE,68,2.0,7.0,98,0.17,,,1.06,weatherlink.com 1.10,2013-02-12 01:15:00,
2013-02-11 19:30:00,55.2,55.0,30.09,NW,314,3.0,3.0,98,0.08,,,1.06,weatherlink.com 1.10,2013-02-12 01:30:00,
2013-02-11 19:45:00,55.2,55.0,30.09,ESE,104,2.0,2.0,98,0.02,,,1.07,weatherlink.com 1.10,2013-02-12 01:45:00,
2013-02-11 20:00:00,55.2,55.0,30.10,SE,127,1.0,4.0,98,0.02,,,1.08,weatherlink.com 1.10,2013-02-12 02:00:00,
2013-02-11 20:15:00,55.1,55.0,30.05,ENE,78,6.0,6.0,98,0.08,,,1.14,weatherlink.com 1.10,2013-02-12 02:15:00,
2013-02-11 20:30:00,55.1,55.0,30.07,ENE,70,6.0,7.0,99,0.09,,,1.15,weatherlink.com 1.10,2013-02-12 02:30:00,
2013-02-11 20:45:00,55.2,55.0,30.05,ENE,60,4.0,10.0,99,0.08,,,1.15,weatherlink.com 1.10,2013-02-12 02:45:00,
2013-02-11 21:00:00,55.3,55.0,30.06,ENE,75,4.0,9.0,99,0.07,,,1.15,weatherlink.com 1.10,2013-02-12 03:00:00,
2013-02-11 21:15:00,55.5,55.0,30.06,ENE,71,1.0,3.0,99,0.01,,,1.15,weatherlink.com 1.10,2013-02-12 03:15:00,
2013-02-11 21:30:00,55.6,55.0,30.06,ENE,77,0.0,2.0,99,0.00,,,1.15,weatherlink.com 1.10,2013-02-12 03:30:00,
2013-02-11 21:45:00,55.6,55.0,30.07,West,262,2.0,2.0,99,0.00,,,1.15,weatherlink.com 1.10,2013-02-12 03:45:00,
2013-02-11 22:00:00,55.7,56.0,30.08,WSW,252,0.0,1.0,99,0.00,,,1.15,weatherlink.com 1.10,2013-02-12 04:00:00,
2013-02-11 22:15:00,55.6,55.0,30.07,WNW,302,0.0,2.0,99,0.00,,,1.15,weatherlink.com 1.10,2013-02-12 04:15:00,
2013-02-11 22:30:00,55.7,56.0,30.07,West,266,2.0,3.0,99,0.00,,,1.15,weatherlink.com 1.10,2013-02-12 04:30:00,
2013-02-11 22:45:00,55.7,56.0,30.07,WSW,252,0.0,3.0,99,0.01,,,1.16,weatherlink.com 1.10,2013-02-12 04:45:00,
2013-02-11 23:00:00,55.6,55.0,30.05,ESE,109,1.0,6.0,99,0.02,,,1.17,weatherlink.com 1.10,2013-02-12 05:00:00,
2013-02-11 23:15:00,55.6,55.0,30.07,West,280,0.0,2.0,99,0.02,,,1.17,weatherlink.com 1.10,2013-02-12 05:15:00,
2013-02-11 23:30:00,55.6,55.0,30.07,WNW,290,0.0,2.0,99,0.02,,,1.17,weatherlink.com 1.10,2013-02-12 05:30:00,
2013-02-11 23:45:00,55.6,55.0,30.07,West,269,1.0,1.0,99,0.01,,,1.17,weatherlink.com 1.10,2013-02-12 05:45:00,